Time;durP1;ratioP1;P1;durP2;ratioP2;P2;SDS_P1;SDS_P2;PMS_P1;PMS_P2;Temp;Humidity;BMP_temperature;BMP_pressure;BME280_temperature;BME280_humidity;BME280_pressure;Samples;Min_cycle;Max_cycle;Signal;HPM_P1;HPM_P2
2022/11/12 00:00:11;;;;;;;;;13.00;10.00;;;;;;;;5054568;28;51430;-48
2022/11/12 00:02:55;;;;;;;;;9.75;8.00;;;;;;;;5041683;28;51149;-49
2022/11/12 00:05:40;;;;;;;;;8.50;8.50;;;;;;;;5044715;28;51372;-52
2022/11/12 00:08:24;;;;;;;;;8.00;8.00;;;;;;;;5042663;28;51176;-52
2022/11/12 00:11:08;;;;;;;;;8.50;6.25;;;;;;;;5048668;28;51231;-47
2022/11/12 00:13:53;;;;;;;;;6.75;5.75;;;;;;;;5051438;28;51209;-49
2022/11/12 00:16:37;;;;;;;;;8.50;7.00;;;;;;;;5040282;28;51307;-49
2022/11/12 00:19:21;;;;;;;;;7.50;5.75;;;;;;;;5040417;28;51288;-47
2022/11/12 00:22:06;;;;;;;;;7.50;6.25;;;;;;;;5040915;28;51077;-50
2022/11/12 00:24:50;;;;;;;;;12.50;6.50;;;;;;;;5052583;28;51136;-49
2022/11/12 00:27:35;;;;;;;;;7.00;6.75;;;;;;;;5058027;28;51246;-49
2022/11/12 00:30:19;;;;;;;;;9.25;5.00;;;;;;;;5050956;28;51533;-46
2022/11/12 00:33:04;;;;;;;;;13.75;8.00;;;;;;;;5043026;28;51170;-49
2022/11/12 00:35:48;;;;;;;;;7.00;6.00;;;;;;;;5052440;28;51131;-50
2022/11/12 00:38:33;;;;;;;;;7.75;5.25;;;;;;;;5039810;28;51215;-51
2022/11/12 00:41:17;;;;;;;;;7.75;6.50;;;;;;;;5054856;28;51298;-49
2022/11/12 00:44:02;;;;;;;;;8.00;5.75;;;;;;;;5055898;28;51447;-49
2022/11/12 00:46:46;;;;;;;;;10.25;6.00;;;;;;;;5053828;28;51180;-50
2022/11/12 00:49:30;;;;;;;;;6.00;5.00;;;;;;;;5033406;28;51084;-48
2022/11/12 00:52:15;;;;;;;;;8.25;7.00;;;;;;;;5042240;28;51573;-49
2022/11/12 00:54:59;;;;;;;;;10.25;6.00;;;;;;;;5046651;28;51095;-48
2022/11/12 00:57:44;;;;;;;;;5.50;5.00;;;;;;;;5047116;28;51246;-47
2022/11/12 01:00:28;;;;;;;;;5.00;4.25;;;;;;;;5048730;28;51142;-48
2022/11/12 01:03:12;;;;;;;;;6.75;5.50;;;;;;;;5039978;28;51472;-50
2022/11/12 01:06:04;;;;;;;;;7.00;4.50;;;;;;;;5044960;28;51104;-48
2022/11/12 01:08:49;;;;;;;;;8.00;4.75;;;;;;;;5043088;28;51459;-47
2022/11/12 01:11:34;;;;;;;;;4.75;4.75;;;;;;;;5048715;28;51093;-46
2022/11/12 01:14:19;;;;;;;;;9.75;6.00;;;;;;;;5043384;28;51130;-47
2022/11/12 01:17:03;;;;;;;;;6.75;4.75;;;;;;;;5038570;28;51357;-50
2022/11/12 01:19:48;;;;;;;;;7.00;5.25;;;;;;;;5039832;28;51564;-49
2022/11/12 01:22:32;;;;;;;;;10.00;7.00;;;;;;;;5049924;28;51312;-46
2022/11/12 01:25:17;;;;;;;;;8.25;7.50;;;;;;;;5048790;28;51168;-51
2022/11/12 01:28:01;;;;;;;;;5.25;4.75;;;;;;;;5040016;28;51144;-46
2022/11/12 01:30:46;;;;;;;;;6.50;6.50;;;;;;;;5043449;28;51188;-49
2022/11/12 01:33:30;;;;;;;;;6.50;5.75;;;;;;;;5051792;28;51202;-50
2022/11/12 01:36:15;;;;;;;;;8.00;6.00;;;;;;;;5040580;28;51243;-48
2022/11/12 01:39:00;;;;;;;;;5.00;3.75;;;;;;;;5048991;28;51234;-50
2022/11/12 01:41:44;;;;;;;;;7.25;5.75;;;;;;;;5055598;28;51549;-47
2022/11/12 01:44:33;;;;;;;;;5.50;5.00;;;;;;;;5044248;28;51367;-48
2022/11/12 01:47:26;;;;;;;;;5.50;5.00;;;;;;;;5042126;28;51124;-44
2022/11/12 01:50:21;;;;;;;;;9.25;7.00;;;;;;;;5045396;28;51214;-46
2022/11/12 01:53:07;;;;;;;;;8.50;6.00;;;;;;;;5041164;28;51327;-44
2022/11/12 01:55:52;;;;;;;;;6.75;4.00;;;;;;;;5041447;28;51184;-50
2022/11/12 01:58:37;;;;;;;;;8.00;5.00;;;;;;;;5045913;28;51323;-49
2022/11/12 02:01:21;;;;;;;;;5.75;4.50;;;;;;;;5053439;28;51105;-51
2022/11/12 02:04:06;;;;;;;;;11.00;6.50;;;;;;;;5050454;28;51074;-44
2022/11/12 02:06:51;;;;;;;;;8.50;5.00;;;;;;;;5042884;28;51527;-49
2022/11/12 02:09:35;;;;;;;;;10.75;7.00;;;;;;;;5040226;28;51565;-48
2022/11/12 02:15:24;;;;;;;;;7.00;5.75;;;;;;;;5051418;28;51261;-49
2022/11/12 02:18:08;;;;;;;;;8.50;6.75;;;;;;;;5053768;28;51345;-48
2022/11/12 02:20:54;;;;;;;;;6.25;6.00;;;;;;;;5038881;28;51250;-45
2022/11/12 02:23:38;;;;;;;;;8.00;6.75;;;;;;;;5037051;28;51642;-45
2022/11/12 02:26:23;;;;;;;;;11.50;7.00;;;;;;;;5043569;28;51224;-45
2022/11/12 02:29:08;;;;;;;;;9.75;7.25;;;;;;;;5051676;28;51067;-47
2022/11/12 02:31:52;;;;;;;;;7.00;5.50;;;;;;;;5047793;28;51052;-48
2022/11/12 02:34:36;;;;;;;;;6.75;5.50;;;;;;;;5038035;28;51133;-46
2022/11/12 02:37:20;;;;;;;;;7.00;6.25;;;;;;;;5041710;28;51172;-45
2022/11/12 02:40:05;;;;;;;;;8.25;4.75;;;;;;;;5045226;28;51176;-48
2022/11/12 02:42:49;;;;;;;;;8.25;7.00;;;;;;;;5037876;28;51212;-47
2022/11/12 02:45:34;;;;;;;;;7.00;5.50;;;;;;;;5039740;28;51200;-47
2022/11/12 02:48:18;;;;;;;;;9.00;7.50;;;;;;;;5046329;28;51380;-46
2022/11/12 02:51:03;;;;;;;;;10.25;8.00;;;;;;;;5045254;28;51248;-46
2022/11/12 02:53:47;;;;;;;;;8.00;7.50;;;;;;;;5043505;28;51081;-50
2022/11/12 02:56:31;;;;;;;;;8.00;8.00;;;;;;;;5054234;28;51179;-46
2022/11/12 02:59:16;;;;;;;;;10.75;9.00;;;;;;;;5049745;28;51493;-47
2022/11/12 03:02:00;;;;;;;;;7.25;6.25;;;;;;;;5056836;28;51208;-47
2022/11/12 03:04:45;;;;;;;;;8.50;8.25;;;;;;;;5049874;28;51157;-49
2022/11/12 03:07:29;;;;;;;;;7.25;6.75;;;;;;;;5041524;28;51827;-45
2022/11/12 03:10:14;;;;;;;;;11.00;6.00;;;;;;;;5044700;28;51245;-49
2022/11/12 03:12:59;;;;;;;;;10.50;9.00;;;;;;;;5057221;28;51460;-48
2022/11/12 03:15:43;;;;;;;;;7.75;6.50;;;;;;;;5046976;28;51268;-46
2022/11/12 03:18:27;;;;;;;;;9.75;7.75;;;;;;;;5048699;28;51260;-47
2022/11/12 03:21:12;;;;;;;;;9.25;7.00;;;;;;;;5041611;28;51350;-46
2022/11/12 03:23:56;;;;;;;;;11.00;7.25;;;;;;;;5055568;28;51380;-46
2022/11/12 03:26:40;;;;;;;;;6.75;5.00;;;;;;;;5059861;28;51179;-48
2022/11/12 03:29:25;;;;;;;;;8.25;5.75;;;;;;;;5055947;28;51165;-46
2022/11/12 03:32:09;;;;;;;;;8.75;5.75;;;;;;;;5042342;28;51439;-49
2022/11/12 03:34:54;;;;;;;;;16.75;14.00;;;;;;;;5048613;28;51450;-48
2022/11/12 03:37:38;;;;;;;;;21.50;15.00;;;;;;;;5050153;28;51144;-50
2022/11/12 03:40:23;;;;;;;;;16.00;14.50;;;;;;;;5052075;28;51285;-44
2022/11/12 03:43:07;;;;;;;;;19.00;15.25;;;;;;;;5054428;28;51057;-46
2022/11/12 03:45:52;;;;;;;;;23.00;18.75;;;;;;;;5049879;28;51338;-48
2022/11/12 03:48:36;;;;;;;;;23.00;21.00;;;;;;;;5043606;28;51584;-48
2022/11/12 03:51:21;;;;;;;;;23.75;21.00;;;;;;;;5045053;28;51081;-46
2022/11/12 03:54:06;;;;;;;;;18.75;15.75;;;;;;;;5041743;28;51255;-46
2022/11/12 03:56:50;;;;;;;;;22.00;18.75;;;;;;;;5055377;28;51445;-44
2022/11/12 03:59:34;;;;;;;;;23.75;21.00;;;;;;;;5048708;28;51200;-50
2022/11/12 04:02:19;;;;;;;;;26.50;23.50;;;;;;;;5041142;28;51560;-50
2022/11/12 04:08:36;;;;;;;;;25.50;23.00;;;;;;;;5042101;28;51167;-48
2022/11/12 04:11:20;;;;;;;;;26.50;22.25;;;;;;;;5056879;28;51545;-49
2022/11/12 04:14:04;;;;;;;;;26.00;21.25;;;;;;;;5042942;28;51584;-44
2022/11/12 04:22:54;;;;;;;;;26.00;23.75;;;;;;;;5047462;28;51136;-48
2022/11/12 04:30:14;;;;;;;;;44.25;36.25;;;;;;;;5049214;28;51774;-48
2022/11/12 04:31:46;;;;;;;;;68.00;51.75;;;;;;;;5047533;28;52586;-49
2022/11/12 04:34:30;;;;;;;;;54.00;43.50;;;;;;;;5054099;28;51174;-49
2022/11/12 04:37:14;;;;;;;;;48.75;38.75;;;;;;;;5040606;28;51485;-47
2022/11/12 04:44:58;;;;;;;;;27.75;24.25;;;;;;;;5047395;28;51457;-50
2022/11/12 04:46:08;;;;;;;;;25.50;25.00;;;;;;;;5048701;28;51097;-47
2022/11/12 04:48:52;;;;;;;;;30.75;28.00;;;;;;;;5042484;28;51361;-48
2022/11/12 04:54:40;;;;;;;;;37.75;30.75;;;;;;;;5044954;28;51192;-44
2022/11/12 04:57:25;;;;;;;;;39.25;32.00;;;;;;;;5051573;28;51357;-52
2022/11/12 05:00:09;;;;;;;;;38.25;32.25;;;;;;;;5041003;28;51144;-50
2022/11/12 05:02:54;;;;;;;;;44.75;34.75;;;;;;;;5036727;28;51204;-49
2022/11/12 05:05:38;;;;;;;;;54.75;42.75;;;;;;;;5047521;28;51001;-51
2022/11/12 05:08:23;;;;;;;;;43.00;35.00;;;;;;;;5046295;28;51146;-48
2022/11/12 05:11:07;;;;;;;;;33.25;27.50;;;;;;;;5047736;28;51084;-47
2022/11/12 05:13:51;;;;;;;;;6.00;5.75;;;;;;;;5040526;28;51408;-46
2022/11/12 05:16:36;;;;;;;;;5.00;3.25;;;;;;;;5041350;28;51143;-51
2022/11/12 05:19:20;;;;;;;;;11.00;9.00;;;;;;;;5050498;28;51282;-48
2022/11/12 05:22:04;;;;;;;;;11.25;4.75;;;;;;;;5040390;28;51146;-49
2022/11/12 05:24:49;;;;;;;;;11.25;9.00;;;;;;;;5039657;28;51421;-49
2022/11/12 05:27:34;;;;;;;;;12.00;8.00;;;;;;;;5052176;28;51116;-45
2022/11/12 05:30:18;;;;;;;;;15.50;13.50;;;;;;;;5047053;28;51676;-50
2022/11/12 05:33:02;;;;;;;;;15.25;12.75;;;;;;;;5054813;28;51123;-48
2022/11/12 05:35:46;;;;;;;;;10.25;9.25;;;;;;;;5050832;28;51101;-51
2022/11/12 05:38:31;;;;;;;;;24.25;18.75;;;;;;;;5044141;28;51133;-49
2022/11/12 05:41:15;;;;;;;;;12.75;11.00;;;;;;;;5039518;28;51130;-47
2022/11/12 05:44:00;;;;;;;;;15.50;13.50;;;;;;;;5054339;28;51757;-46
2022/11/12 05:46:44;;;;;;;;;11.25;8.25;;;;;;;;5039335;28;51085;-47
2022/11/12 05:49:29;;;;;;;;;8.75;8.25;;;;;;;;5048795;28;51184;-47
2022/11/12 05:52:13;;;;;;;;;12.00;9.50;;;;;;;;5052822;28;51117;-49
2022/11/12 05:54:57;;;;;;;;;17.00;10.75;;;;;;;;5043847;28;51181;-48
2022/11/12 05:57:42;;;;;;;;;11.75;11.75;;;;;;;;5042801;28;51142;-48
2022/11/12 06:00:26;;;;;;;;;11.00;11.00;;;;;;;;5049761;28;51231;-52
2022/11/12 06:03:11;;;;;;;;;12.50;11.25;;;;;;;;5047770;28;51566;-51
2022/11/12 06:05:55;;;;;;;;;12.25;10.00;;;;;;;;5053544;28;51123;-52
2022/11/12 06:08:40;;;;;;;;;13.00;8.75;;;;;;;;5042845;28;51732;-49
2022/11/12 06:11:24;;;;;;;;;12.00;12.00;;;;;;;;5039289;28;51446;-45
2022/11/12 06:14:09;;;;;;;;;16.25;10.75;;;;;;;;5040073;28;51191;-49
2022/11/12 06:16:53;;;;;;;;;10.00;8.25;;;;;;;;5049779;28;51184;-48
2022/11/12 06:19:37;;;;;;;;;10.25;8.25;;;;;;;;5045274;28;51241;-48
2022/11/12 06:22:22;;;;;;;;;9.25;9.25;;;;;;;;5042600;28;51224;-46
2022/11/12 06:25:07;;;;;;;;;9.75;9.25;;;;;;;;5049725;28;51112;-47
2022/11/12 06:27:51;;;;;;;;;7.75;6.25;;;;;;;;5047817;28;51161;-53
2022/11/12 06:30:35;;;;;;;;;8.50;6.00;;;;;;;;5047326;28;51152;-49
2022/11/12 06:33:20;;;;;;;;;8.50;7.00;;;;;;;;5042899;28;51524;-48
2022/11/12 06:36:05;;;;;;;;;22.25;20.00;;;;;;;;5052994;28;51144;-49
2022/11/12 06:38:49;;;;;;;;;14.75;11.75;;;;;;;;5041756;28;51389;-50
2022/11/12 06:41:33;;;;;;;;;8.75;8.75;;;;;;;;5043799;28;51525;-50
2022/11/12 06:44:18;;;;;;;;;11.00;8.75;;;;;;;;5042618;28;51460;-49
2022/11/12 06:47:02;;;;;;;;;7.50;7.50;;;;;;;;5035609;28;52794;-47
2022/11/12 06:49:47;;;;;;;;;10.25;4.75;;;;;;;;5048995;28;51124;-47
2022/11/12 06:52:31;;;;;;;;;8.25;8.25;;;;;;;;5050151;28;51588;-48
2022/11/12 06:55:16;;;;;;;;;10.50;7.00;;;;;;;;5049175;28;51208;-47
2022/11/12 06:58:00;;;;;;;;;9.25;6.75;;;;;;;;5048703;28;51109;-48
2022/11/12 07:00:44;;;;;;;;;29.25;24.50;;;;;;;;5046061;28;51281;-50
2022/11/12 07:03:29;;;;;;;;;32.75;28.00;;;;;;;;5051296;28;51166;-47
2022/11/12 07:06:17;;;;;;;;;33.50;26.00;;;;;;;;5047568;28;51151;-50
2022/11/12 07:09:01;;;;;;;;;20.00;19.00;;;;;;;;5047733;28;51180;-45
2022/11/12 07:11:46;;;;;;;;;43.50;33.00;;;;;;;;5061315;28;51251;-49
2022/11/12 07:14:30;;;;;;;;;24.75;19.25;;;;;;;;5051557;28;51077;-49
2022/11/12 07:17:15;;;;;;;;;29.25;23.50;;;;;;;;5043928;28;51211;-46
2022/11/12 07:20:00;;;;;;;;;21.75;18.25;;;;;;;;5048169;28;51590;-44
2022/11/12 07:22:44;;;;;;;;;45.25;35.00;;;;;;;;5046482;28;51735;-49
2022/11/12 07:25:28;;;;;;;;;54.25;43.00;;;;;;;;5053303;28;51110;-47
2022/11/12 07:28:13;;;;;;;;;28.50;24.75;;;;;;;;5052281;28;51187;-48
2022/11/12 07:30:58;;;;;;;;;8.50;8.50;;;;;;;;5046453;28;51220;-49
2022/11/12 07:33:43;;;;;;;;;16.00;12.25;;;;;;;;5047716;28;51440;-50
2022/11/12 07:36:27;;;;;;;;;18.25;18.25;;;;;;;;5049576;28;51071;-49
2022/11/12 07:39:12;;;;;;;;;22.50;16.75;;;;;;;;5047807;28;51168;-52
2022/11/12 07:41:56;;;;;;;;;26.00;22.50;;;;;;;;5048120;28;51183;-53
2022/11/12 07:44:40;;;;;;;;;25.00;19.75;;;;;;;;5044292;28;51240;-48
2022/11/12 07:47:24;;;;;;;;;16.75;15.00;;;;;;;;5041886;28;51054;-49
2022/11/12 07:50:09;;;;;;;;;20.00;16.75;;;;;;;;5040682;28;51259;-48
2022/11/12 07:52:56;;;;;;;;;16.25;15.75;;;;;;;;5041719;28;51467;-47
2022/11/12 07:55:41;;;;;;;;;21.50;18.50;;;;;;;;5055008;28;51168;-47
2022/11/12 07:58:26;;;;;;;;;23.50;19.75;;;;;;;;5041601;28;51589;-46
2022/11/12 08:01:18;;;;;;;;;21.75;20.25;;;;;;;;5046118;28;51260;-50
2022/11/12 08:04:04;;;;;;;;;27.25;25.50;;;;;;;;5050396;28;51065;-50
2022/11/12 08:06:48;;;;;;;;;28.75;25.00;;;;;;;;5054924;28;51331;-43
2022/11/12 08:09:32;;;;;;;;;30.25;25.25;;;;;;;;5061509;28;51138;-42
2022/11/12 08:12:17;;;;;;;;;32.50;28.00;;;;;;;;5061898;28;51419;-42
2022/11/12 08:15:01;;;;;;;;;28.75;26.25;;;;;;;;5048016;28;51124;-41
2022/11/12 08:17:46;;;;;;;;;29.75;23.25;;;;;;;;5041115;28;51097;-41
2022/11/12 08:20:30;;;;;;;;;28.00;26.25;;;;;;;;5040698;28;51165;-43
2022/11/12 08:23:15;;;;;;;;;32.25;28.00;;;;;;;;5041404;28;51470;-42
2022/11/12 08:26:00;;;;;;;;;27.25;27.00;;;;;;;;5060664;28;51214;-42
2022/11/12 08:28:45;;;;;;;;;39.50;31.75;;;;;;;;5048421;28;51312;-43
2022/11/12 08:31:29;;;;;;;;;36.25;28.75;;;;;;;;5041234;28;51173;-44
2022/11/12 08:34:14;;;;;;;;;29.00;26.00;;;;;;;;5045586;28;52304;-45
2022/11/12 08:36:59;;;;;;;;;28.50;27.25;;;;;;;;5040984;28;51480;-46
2022/11/12 08:39:43;;;;;;;;;28.25;24.50;;;;;;;;5049131;28;51137;-42
2022/11/12 08:42:28;;;;;;;;;34.75;27.75;;;;;;;;5056347;28;51548;-45
2022/11/12 08:45:12;;;;;;;;;23.50;19.50;;;;;;;;5054343;28;51052;-43
2022/11/12 08:48:04;;;;;;;;;20.75;19.75;;;;;;;;5059581;28;51068;-45
2022/11/12 08:50:48;;;;;;;;;22.00;22.00;;;;;;;;5060581;28;51305;-42
2022/11/12 08:53:32;;;;;;;;;17.75;17.50;;;;;;;;5061144;28;51034;-43
2022/11/12 08:56:17;;;;;;;;;28.00;23.25;;;;;;;;5056699;28;51618;-43
2022/11/12 08:59:01;;;;;;;;;26.25;22.50;;;;;;;;5055302;28;51124;-42
2022/11/12 09:01:45;;;;;;;;;25.75;21.50;;;;;;;;5040791;28;51432;-44
2022/11/12 09:04:30;;;;;;;;;24.25;19.50;;;;;;;;5061025;28;50935;-44
2022/11/12 09:07:15;;;;;;;;;23.25;19.25;;;;;;;;5048649;28;51053;-44
2022/11/12 09:10:00;;;;;;;;;21.00;19.75;;;;;;;;5058380;28;51192;-43
2022/11/12 09:12:49;;;;;;;;;21.50;19.50;;;;;;;;5056455;28;51424;-42
2022/11/12 09:15:33;;;;;;;;;18.25;17.50;;;;;;;;5039733;28;51283;-43
2022/11/12 09:18:17;;;;;;;;;5.50;1.75;;;;;;;;5059216;28;51080;-42
2022/11/12 09:21:03;;;;;;;;;7.25;6.00;;;;;;;;5060317;28;51089;-45
2022/11/12 09:23:47;;;;;;;;;6.75;6.75;;;;;;;;5060792;28;51042;-41
2022/11/12 09:26:32;;;;;;;;;5.00;5.00;;;;;;;;5051700;28;51354;-44
2022/11/12 09:29:16;;;;;;;;;9.50;6.00;;;;;;;;5040221;28;51160;-43
2022/11/12 09:32:01;;;;;;;;;12.00;10.50;;;;;;;;5040124;28;51591;-44
2022/11/12 09:34:45;;;;;;;;;7.00;6.00;;;;;;;;5050793;28;51212;-44
2022/11/12 09:37:30;;;;;;;;;10.00;9.75;;;;;;;;5060321;28;51388;-46
2022/11/12 09:40:18;;;;;;;;;18.50;15.50;;;;;;;;5059845;28;51279;-41
2022/11/12 09:43:08;;;;;;;;;13.25;9.75;;;;;;;;5056908;28;51151;-46
2022/11/12 09:45:55;;;;;;;;;16.00;10.50;;;;;;;;5060165;28;51248;-47
2022/11/12 09:48:41;;;;;;;;;16.50;12.00;;;;;;;;5060199;28;51350;-42
2022/11/12 09:51:36;;;;;;;;;14.50;14.50;;;;;;;;5050291;28;51282;-43
2022/11/12 09:54:25;;;;;;;;;12.75;12.00;;;;;;;;5049397;28;51144;-45
2022/11/12 09:57:12;;;;;;;;;16.00;13.00;;;;;;;;5059768;28;51505;-43
2022/11/12 09:59:57;;;;;;;;;14.25;11.25;;;;;;;;5060045;28;51122;-43
2022/11/12 10:03:04;;;;;;;;;15.75;13.75;;;;;;;;5055797;28;50997;-43
2022/11/12 10:05:55;;;;;;;;;16.50;12.25;;;;;;;;5059670;28;51140;-43
2022/11/12 10:08:48;;;;;;;;;13.75;11.50;;;;;;;;5059765;28;51064;-45
2022/11/12 10:14:50;;;;;;;;;15.00;11.00;;;;;;;;5055572;28;51399;-47
2022/11/12 10:17:44;;;;;;;;;19.25;14.25;;;;;;;;5059437;28;51230;-43
2022/11/12 10:20:43;;;;;;;;;14.75;11.00;;;;;;;;5059868;28;51194;-43
2022/11/12 10:23:30;;;;;;;;;14.00;12.50;;;;;;;;5054042;28;51665;-42
2022/11/12 10:26:16;;;;;;;;;14.00;11.50;;;;;;;;5046406;28;51283;-43
2022/11/12 10:29:00;;;;;;;;;11.00;10.75;;;;;;;;5053290;28;51371;-44
2022/11/12 10:31:45;;;;;;;;;9.50;6.75;;;;;;;;5051322;28;51117;-43
2022/11/12 10:34:32;;;;;;;;;12.00;8.75;;;;;;;;5056413;28;51035;-47
2022/11/12 10:37:24;;;;;;;;;11.75;9.00;;;;;;;;5040518;28;51382;-43
2022/11/12 10:40:25;;;;;;;;;18.25;14.75;;;;;;;;5044646;28;51153;-42
2022/11/12 10:43:10;;;;;;;;;16.25;13.25;;;;;;;;5039362;28;51288;-41
2022/11/12 10:46:11;;;;;;;;;15.00;12.25;;;;;;;;5040825;28;51175;-49
2022/11/12 10:49:06;;;;;;;;;10.75;10.00;;;;;;;;5038724;28;51433;-47
2022/11/12 10:51:55;;;;;;;;;16.25;13.25;;;;;;;;5047643;28;51262;-43
2022/11/12 10:54:40;;;;;;;;;16.25;12.00;;;;;;;;5044891;28;51015;-43
2022/11/12 10:57:25;;;;;;;;;14.00;11.25;;;;;;;;5039400;28;51138;-42
2022/11/12 11:00:19;;;;;;;;;12.00;11.25;;;;;;;;5041216;28;51106;-44
2022/11/12 11:03:30;;;;;;;;;12.75;10.50;;;;;;;;5044090;28;51142;-47
2022/11/12 11:06:14;;;;;;;;;15.00;12.75;;;;;;;;5045202;28;51124;-45
2022/11/12 11:09:14;;;;;;;;;17.75;14.75;;;;;;;;5043344;28;51242;-43
2022/11/12 11:11:58;;;;;;;;;11.25;11.25;;;;;;;;5050473;28;51165;-42
2022/11/12 11:14:43;;;;;;;;;15.50;12.50;;;;;;;;5046881;28;51090;-43
2022/11/12 11:17:27;;;;;;;;;10.00;8.25;;;;;;;;5046022;28;51211;-44
2022/11/12 11:20:27;;;;;;;;;15.00;13.25;;;;;;;;5047247;28;51287;-44
2022/11/12 11:23:25;;;;;;;;;15.25;12.75;;;;;;;;5049831;28;51086;-46
2022/11/12 11:26:23;;;;;;;;;14.75;12.25;;;;;;;;5043537;28;51245;-47
2022/11/12 11:29:26;;;;;;;;;18.50;11.25;;;;;;;;5052230;28;51355;-47
2022/11/12 11:32:18;;;;;;;;;13.25;11.75;;;;;;;;5059785;28;51179;-46
2022/11/12 11:35:06;;;;;;;;;13.25;11.50;;;;;;;;5045089;28;51194;-46
2022/11/12 11:37:56;;;;;;;;;15.75;10.00;;;;;;;;5054436;28;51156;-46
2022/11/12 11:40:46;;;;;;;;;17.00;12.25;;;;;;;;5044865;28;51190;-46
2022/11/12 11:43:49;;;;;;;;;15.75;11.75;;;;;;;;5044986;28;51236;-50
2022/11/12 11:46:56;;;;;;;;;11.00;9.50;;;;;;;;5045944;28;51088;-57
2022/11/12 11:49:49;;;;;;;;;13.75;11.75;;;;;;;;5042625;28;51856;-58
2022/11/12 11:52:39;;;;;;;;;16.75;14.00;;;;;;;;5043265;28;51169;-58
2022/11/12 11:55:42;;;;;;;;;17.00;10.25;;;;;;;;5048010;28;51500;-57
2022/11/12 11:58:29;;;;;;;;;6.50;6.50;;;;;;;;5056269;28;51673;-59
2022/11/12 12:01:19;;;;;;;;;11.25;7.75;;;;;;;;5047787;28;51180;-58
2022/11/12 12:04:19;;;;;;;;;12.25;10.00;;;;;;;;5051903;28;51062;-57
2022/11/12 12:07:20;;;;;;;;;6.50;5.75;;;;;;;;5054375;28;51097;-57
2022/11/12 12:10:16;;;;;;;;;11.00;9.50;;;;;;;;5050291;28;51043;-57
2022/11/12 12:13:08;;;;;;;;;12.50;8.75;;;;;;;;5027122;28;51059;-60
2022/11/12 12:16:16;;;;;;;;;9.75;7.25;;;;;;;;5043736;28;51179;-59
2022/11/12 12:19:11;;;;;;;;;10.75;7.75;;;;;;;;5048992;28;51178;-57
2022/11/12 12:21:57;;;;;;;;;9.50;8.25;;;;;;;;5045504;28;51350;-57
2022/11/12 12:24:41;;;;;;;;;11.50;9.75;;;;;;;;5046285;28;51544;-58
2022/11/12 12:27:29;;;;;;;;;12.25;9.25;;;;;;;;5039681;28;51199;-55
2022/11/12 12:30:21;;;;;;;;;14.75;9.50;;;;;;;;5039678;28;51212;-59
2022/11/12 12:33:18;;;;;;;;;17.25;10.25;;;;;;;;5044433;28;51067;-59
2022/11/12 12:36:07;;;;;;;;;8.25;8.25;;;;;;;;5047280;28;51089;-58
2022/11/12 12:38:54;;;;;;;;;11.25;8.50;;;;;;;;5056319;28;51463;-56
2022/11/12 12:41:43;;;;;;;;;7.75;7.75;;;;;;;;5054964;28;51119;-57
2022/11/12 12:47:36;;;;;;;;;8.25;6.00;;;;;;;;5060631;28;51309;-58
2022/11/12 12:50:21;;;;;;;;;7.75;6.50;;;;;;;;5060688;28;51079;-57
2022/11/12 12:53:11;;;;;;;;;6.00;6.00;;;;;;;;5046047;28;51213;-57
2022/11/12 12:56:01;;;;;;;;;8.25;6.75;;;;;;;;5057065;28;51061;-58
2022/11/12 12:58:47;;;;;;;;;7.50;5.25;;;;;;;;5051926;28;51089;-57
2022/11/12 13:01:35;;;;;;;;;7.75;6.00;;;;;;;;5043104;28;51149;-57
2022/11/12 13:04:38;;;;;;;;;8.00;8.00;;;;;;;;5036300;28;51167;-58
2022/11/12 13:07:39;;;;;;;;;6.75;6.75;;;;;;;;5040461;28;51092;-58
2022/11/12 13:10:53;;;;;;;;;21.25;20.00;;;;;;;;5057536;28;51096;-57
2022/11/12 13:13:37;;;;;;;;;16.00;15.25;;;;;;;;5047349;28;51501;-58
2022/11/12 13:16:41;;;;;;;;;8.25;7.00;;;;;;;;5053483;28;51543;-58
2022/11/12 13:19:31;;;;;;;;;9.50;8.00;;;;;;;;5028385;28;51142;-57
2022/11/12 13:22:16;;;;;;;;;3.00;3.00;;;;;;;;5060051;28;50990;-56
2022/11/12 13:25:12;;;;;;;;;12.75;10.25;;;;;;;;5059509;28;51376;-59
2022/11/12 13:28:03;;;;;;;;;11.00;11.00;;;;;;;;5054360;28;51031;-57
2022/11/12 13:30:48;;;;;;;;;14.00;8.00;;;;;;;;5058843;28;51116;-57
2022/11/12 13:33:34;;;;;;;;;11.50;10.25;;;;;;;;5059407;28;51175;-60
2022/11/12 13:36:24;;;;;;;;;7.25;6.50;;;;;;;;5060196;28;51169;-57
2022/11/12 13:39:15;;;;;;;;;11.25;6.75;;;;;;;;5059119;28;51548;-56
2022/11/12 13:45:04;;;;;;;;;10.25;6.50;;;;;;;;5052106;28;51018;-58
2022/11/12 13:47:49;;;;;;;;;11.75;7.00;;;;;;;;5052001;28;51132;-58
2022/11/12 13:50:34;;;;;;;;;6.00;5.00;;;;;;;;5055748;28;51069;-58
2022/11/12 13:53:24;;;;;;;;;5.25;5.25;;;;;;;;5048858;28;51089;-59
2022/11/12 13:56:11;;;;;;;;;7.50;4.50;;;;;;;;5039918;28;51297;-58
2022/11/12 13:59:07;;;;;;;;;7.75;5.75;;;;;;;;5039833;28;51104;-58
2022/11/12 14:01:52;;;;;;;;;6.75;5.00;;;;;;;;5044192;28;51196;-58
2022/11/12 14:04:37;;;;;;;;;7.50;4.25;;;;;;;;5038778;28;51424;-59
2022/11/12 14:07:24;;;;;;;;;7.00;5.00;;;;;;;;5059464;28;51465;-59
2022/11/12 14:10:08;;;;;;;;;6.00;5.50;;;;;;;;5052419;28;51179;-57
2022/11/12 14:13:18;;;;;;;;;5.25;3.00;;;;;;;;5057652;28;51064;-58
2022/11/12 14:16:02;;;;;;;;;6.00;6.00;;;;;;;;5058895;28;51424;-57
2022/11/12 14:19:06;;;;;;;;;7.50;6.50;;;;;;;;5045472;28;51125;-59
2022/11/12 14:22:08;;;;;;;;;7.50;4.50;;;;;;;;5053581;28;51352;-58
2022/11/12 14:25:00;;;;;;;;;8.00;6.25;;;;;;;;5050645;28;51184;-57
2022/11/12 14:27:48;;;;;;;;;9.50;7.00;;;;;;;;5039292;28;51133;-59
2022/11/12 14:30:33;;;;;;;;;6.75;5.50;;;;;;;;5040155;28;51146;-60
2022/11/12 14:33:19;;;;;;;;;10.00;8.00;;;;;;;;5047772;28;51112;-59
2022/11/12 14:36:14;;;;;;;;;5.00;4.75;;;;;;;;5059197;28;51138;-57
2022/11/12 14:38:58;;;;;;;;;6.00;6.00;;;;;;;;5059048;28;51174;-61
2022/11/12 14:41:46;;;;;;;;;7.00;4.50;;;;;;;;5050538;28;51555;-58
2022/11/12 14:44:35;;;;;;;;;5.50;4.00;;;;;;;;5047229;28;51077;-57
2022/11/12 14:47:19;;;;;;;;;3.75;3.75;;;;;;;;5049989;28;51293;-59
2022/11/12 14:50:04;;;;;;;;;3.25;2.25;;;;;;;;5047396;28;51094;-60
2022/11/12 14:52:50;;;;;;;;;3.75;3.75;;;;;;;;5050053;28;51073;-56
2022/11/12 14:55:35;;;;;;;;;2.00;2.00;;;;;;;;5042099;28;51090;-57
2022/11/12 14:58:21;;;;;;;;;4.00;4.00;;;;;;;;5043839;28;51857;-58
2022/11/12 15:01:18;;;;;;;;;3.75;3.00;;;;;;;;5053171;28;51208;-57
2022/11/12 15:04:03;;;;;;;;;3.75;2.00;;;;;;;;5062998;28;51159;-59
2022/11/12 15:06:52;;;;;;;;;4.50;4.00;;;;;;;;5052927;28;51815;-58
2022/11/12 15:09:37;;;;;;;;;5.50;3.50;;;;;;;;5049345;28;51690;-57
2022/11/12 15:12:23;;;;;;;;;3.25;3.00;;;;;;;;5047268;28;51072;-58
2022/11/12 15:15:21;;;;;;;;;5.00;5.00;;;;;;;;5044571;28;51120;-59
2022/11/12 15:18:17;;;;;;;;;3.75;3.75;;;;;;;;5046775;28;51167;-56
2022/11/12 15:21:06;;;;;;;;;5.25;5.00;;;;;;;;5044549;28;51426;-58
2022/11/12 15:24:11;;;;;;;;;7.00;3.00;;;;;;;;5048980;28;51363;-58
2022/11/12 15:26:56;;;;;;;;;4.75;3.50;;;;;;;;5045051;28;51397;-58
2022/11/12 15:29:40;;;;;;;;;4.00;4.00;;;;;;;;5047979;28;51148;-57
2022/11/12 15:32:24;;;;;;;;;4.75;4.75;;;;;;;;5044958;28;51142;-58
2022/11/12 15:35:24;;;;;;;;;5.25;4.25;;;;;;;;5048704;28;51092;-59
2022/11/12 15:38:26;;;;;;;;;5.75;5.00;;;;;;;;5041012;28;51225;-59
2022/11/12 15:41:30;;;;;;;;;5.00;3.75;;;;;;;;5052582;28;51332;-58
2022/11/12 15:44:14;;;;;;;;;6.25;4.25;;;;;;;;5057015;28;51010;-58
2022/11/12 15:46:59;;;;;;;;;5.25;5.00;;;;;;;;5051566;28;51546;-57
2022/11/12 15:49:50;;;;;;;;;6.00;4.25;;;;;;;;5046330;28;52280;-57
2022/11/12 15:52:34;;;;;;;;;6.25;4.25;;;;;;;;5052743;28;51160;-56
2022/11/12 15:55:19;;;;;;;;;6.00;3.50;;;;;;;;5040190;28;51028;-62
2022/11/12 15:58:04;;;;;;;;;6.00;4.25;;;;;;;;5044744;28;51052;-60
2022/11/12 16:00:48;;;;;;;;;6.75;5.75;;;;;;;;5048881;28;51037;-57
2022/11/12 16:03:33;;;;;;;;;6.50;6.25;;;;;;;;5041135;28;51623;-58
2022/11/12 16:06:17;;;;;;;;;5.50;5.00;;;;;;;;5055421;28;51196;-58
2022/11/12 16:09:01;;;;;;;;;3.25;3.25;;;;;;;;5043003;28;51089;-56
2022/11/12 16:11:48;;;;;;;;;9.50;5.25;;;;;;;;5044375;28;51128;-57
2022/11/12 16:14:33;;;;;;;;;7.00;4.50;;;;;;;;5042576;28;51487;-60
2022/11/12 16:17:17;;;;;;;;;10.00;6.50;;;;;;;;5048065;28;51140;-57
2022/11/12 16:20:04;;;;;;;;;9.00;5.00;;;;;;;;5058644;28;51368;-57
2022/11/12 16:22:50;;;;;;;;;9.75;5.25;;;;;;;;5055747;28;51582;-57
2022/11/12 16:25:35;;;;;;;;;7.00;5.00;;;;;;;;5050396;28;51283;-59
2022/11/12 16:28:20;;;;;;;;;5.25;3.25;;;;;;;;5043001;28;51232;-58
2022/11/12 16:31:05;;;;;;;;;5.00;4.25;;;;;;;;5058739;28;51170;-58
2022/11/12 16:33:49;;;;;;;;;6.00;4.00;;;;;;;;5061405;28;51008;-57
2022/11/12 16:36:34;;;;;;;;;6.00;5.75;;;;;;;;5057593;28;51246;-60
2022/11/12 16:39:18;;;;;;;;;6.25;4.25;;;;;;;;5045767;28;51041;-58
2022/11/12 16:42:03;;;;;;;;;5.50;4.00;;;;;;;;5042617;28;51084;-58
2022/11/12 16:44:47;;;;;;;;;6.00;5.00;;;;;;;;5040101;28;51153;-57
2022/11/12 16:47:31;;;;;;;;;13.00;6.00;;;;;;;;5040330;28;51072;-56
2022/11/12 16:50:18;;;;;;;;;7.00;4.50;;;;;;;;5048187;28;51080;-56
2022/11/12 16:53:02;;;;;;;;;5.75;3.75;;;;;;;;5060110;28;51014;-57
2022/11/12 16:55:46;;;;;;;;;5.25;5.25;;;;;;;;5052590;28;51030;-57
2022/11/12 16:58:30;;;;;;;;;9.50;6.00;;;;;;;;5054298;28;51158;-57